createdAt,value
2022-07-31T00:00:18.921Z,21.42
2022-07-31T00:01:19.093Z,21.39
2022-07-31T00:02:19.240Z,21.39
2022-07-31T00:03:19.530Z,21.37
2022-07-31T00:04:19.641Z,21.36
2022-07-31T00:05:19.800Z,21.33
2022-07-31T00:06:19.960Z,21.30
2022-07-31T00:07:20.130Z,21.30
2022-07-31T00:08:20.281Z,21.30
2022-07-31T00:09:53.991Z,21.27
2022-07-31T00:10:21.650Z,21.25
2022-07-31T00:11:20.831Z,21.22
2022-07-31T00:12:20.991Z,21.20
2022-07-31T00:13:56.687Z,21.18
2022-07-31T00:14:22.363Z,21.18
2022-07-31T00:15:21.512Z,21.17
2022-07-31T00:16:21.670Z,21.15
2022-07-31T00:17:21.862Z,21.15
2022-07-31T00:18:21.990Z,21.15
2022-07-31T00:19:22.201Z,21.14
2022-07-31T00:20:22.362Z,21.12
2022-07-31T00:21:22.520Z,21.11
2022-07-31T00:22:22.716Z,21.11
2022-07-31T00:23:22.871Z,21.12
2022-07-31T00:24:23.071Z,21.11
2022-07-31T00:25:23.191Z,21.11
2022-07-31T00:26:23.361Z,21.11
2022-07-31T00:27:23.522Z,21.11
2022-07-31T00:28:23.681Z,21.11
2022-07-31T00:29:23.873Z,21.09
2022-07-31T00:30:24.035Z,21.09
2022-07-31T00:31:24.193Z,21.07
2022-07-31T00:32:24.350Z,21.07
2022-07-31T00:33:24.515Z,21.07
2022-07-31T00:34:24.692Z,21.05
2022-07-31T00:35:24.864Z,21.05
2022-07-31T00:36:29.961Z,21.03
2022-07-31T00:37:26.212Z,21.05
2022-07-31T00:38:26.908Z,21.00
2022-07-31T00:39:25.580Z,21.00
2022-07-31T00:40:25.732Z,20.99
2022-07-31T00:41:25.931Z,20.96
2022-07-31T00:42:26.085Z,20.95
2022-07-31T00:43:27.585Z,20.95
2022-07-31T00:44:26.447Z,20.95
2022-07-31T00:45:29.284Z,20.95
2022-07-31T00:46:27.768Z,20.95
2022-07-31T00:47:26.980Z,20.90
2022-07-31T00:48:27.723Z,20.92
2022-07-31T00:49:27.410Z,20.88
2022-07-31T00:50:28.485Z,20.90
2022-07-31T00:51:27.680Z,20.88
2022-07-31T00:52:27.853Z,20.90
2022-07-31T00:53:28.021Z,20.88
2022-07-31T00:54:28.193Z,20.88
2022-07-31T00:55:28.375Z,20.87
2022-07-31T00:56:28.513Z,20.87
2022-07-31T00:57:28.683Z,20.88
2022-07-31T00:58:28.843Z,20.85
2022-07-31T00:59:29.032Z,20.85
2022-07-31T01:00:29.206Z,20.84
2022-07-31T01:01:29.488Z,20.84
2022-07-31T01:02:29.553Z,20.82
2022-07-31T01:03:29.716Z,20.81
2022-07-31T01:04:31.291Z,20.80
2022-07-31T01:05:30.060Z,20.80
2022-07-31T01:06:30.219Z,20.80
2022-07-31T01:07:30.377Z,20.80
2022-07-31T01:08:30.543Z,20.78
2022-07-31T01:09:30.724Z,20.78
2022-07-31T01:10:30.884Z,20.78
2022-07-31T01:11:31.065Z,20.78
2022-07-31T01:12:31.225Z,20.77
2022-07-31T01:13:31.386Z,20.77
2022-07-31T01:14:31.585Z,20.77
2022-07-31T01:15:31.756Z,20.77
2022-07-31T01:16:31.918Z,20.75
2022-07-31T01:17:32.099Z,20.75
2022-07-31T01:18:32.235Z,20.74
2022-07-31T01:19:37.983Z,20.72
2022-07-31T01:20:33.565Z,20.72
2022-07-31T01:21:32.757Z,20.69
2022-07-31T01:22:35.083Z,20.72
2022-07-31T01:23:33.104Z,20.72
2022-07-31T01:24:33.304Z,20.70
2022-07-31T01:25:33.441Z,20.70
2022-07-31T01:26:33.601Z,20.69
2022-07-31T01:27:49.662Z,20.67
2022-07-31T01:28:34.952Z,20.67
2022-07-31T01:29:34.114Z,20.67
2022-07-31T01:30:34.266Z,20.66
2022-07-31T01:31:34.437Z,20.66
2022-07-31T01:32:34.596Z,20.66
2022-07-31T01:33:34.770Z,20.66
2022-07-31T01:34:34.955Z,20.65
2022-07-31T01:35:35.122Z,20.65
2022-07-31T01:36:35.474Z,20.65
2022-07-31T01:37:35.446Z,20.63
2022-07-31T01:38:35.627Z,20.63
2022-07-31T01:39:35.797Z,20.62
2022-07-31T01:40:35.958Z,20.62
2022-07-31T01:41:36.122Z,20.60
2022-07-31T01:42:36.277Z,20.60
2022-07-31T01:43:36.438Z,20.59
2022-07-31T01:44:36.617Z,20.58
2022-07-31T01:45:36.788Z,20.59
2022-07-31T01:46:39.016Z,20.56
2022-07-31T01:47:37.146Z,20.58
2022-07-31T01:48:37.310Z,20.55
2022-07-31T01:49:37.487Z,20.58
2022-07-31T01:50:43.963Z,20.56
2022-07-31T01:51:38.848Z,20.51
2022-07-31T01:52:38.026Z,20.52
2022-07-31T01:53:38.188Z,20.52
2022-07-31T01:54:38.368Z,20.52
2022-07-31T01:56:00.916Z,20.48
2022-07-31T01:56:39.720Z,20.48
2022-07-31T01:57:38.915Z,20.50
2022-07-31T01:58:39.077Z,20.48
2022-07-31T01:59:39.251Z,20.47
2022-07-31T02:00:40.464Z,20.44
2022-07-31T02:01:39.615Z,20.43
2022-07-31T02:02:40.371Z,20.43
2022-07-31T02:03:44.067Z,20.43
2022-07-31T02:04:41.589Z,20.43
2022-07-31T02:05:40.264Z,20.43
2022-07-31T02:06:40.426Z,20.41
2022-07-31T02:07:40.618Z,20.40
2022-07-31T02:08:40.786Z,20.41
2022-07-31T02:09:53.685Z,20.41
2022-07-31T02:10:42.118Z,20.39
2022-07-31T02:11:53.582Z,20.40
2022-07-31T02:12:42.490Z,20.39
2022-07-31T02:13:41.681Z,20.40
2022-07-31T02:14:41.859Z,20.39
2022-07-31T02:15:42.020Z,20.39
2022-07-31T02:16:42.186Z,20.37
2022-07-31T02:17:42.349Z,20.39
2022-07-31T02:18:42.520Z,20.39
2022-07-31T02:19:55.406Z,20.39
2022-07-31T02:20:43.879Z,20.36
2022-07-31T02:21:43.070Z,20.34
2022-07-31T02:22:43.229Z,20.32
2022-07-31T02:23:43.391Z,20.32
2022-07-31T02:24:43.570Z,20.29
2022-07-31T02:25:43.733Z,20.29
2022-07-31T02:26:43.899Z,20.26
2022-07-31T02:27:53.627Z,20.25
2022-07-31T02:28:45.260Z,20.26
2022-07-31T02:29:44.451Z,20.22
2022-07-31T02:30:44.611Z,20.22
2022-07-31T02:31:44.771Z,20.22
2022-07-31T02:32:44.933Z,20.19
2022-07-31T02:33:45.091Z,20.21
2022-07-31T02:34:45.274Z,20.19
2022-07-31T02:35:45.793Z,20.18
2022-07-31T02:36:45.619Z,20.16
2022-07-31T02:37:45.770Z,20.16
2022-07-31T02:38:45.970Z,20.14
2022-07-31T02:39:46.152Z,20.14
2022-07-31T02:40:46.312Z,20.14
2022-07-31T02:41:46.499Z,20.13
2022-07-31T02:42:46.640Z,20.11
2022-07-31T02:43:46.807Z,20.10
2022-07-31T02:44:46.981Z,20.09
2022-07-31T02:45:47.149Z,20.07
2022-07-31T02:46:47.311Z,20.06
2022-07-31T02:47:47.472Z,20.06
2022-07-31T02:48:47.756Z,20.04
2022-07-31T02:49:47.871Z,20.03
2022-07-31T02:50:48.021Z,20.04
2022-07-31T02:51:48.181Z,20.04
2022-07-31T02:52:48.353Z,20.02
2022-07-31T02:53:48.513Z,20.02
2022-07-31T02:54:48.682Z,20.00
2022-07-31T02:55:48.854Z,20.02
2022-07-31T02:56:49.011Z,20.02
2022-07-31T02:57:49.172Z,20.02
2022-07-31T02:58:49.353Z,20.02
2022-07-31T02:59:49.543Z,20.02
2022-07-31T03:00:49.738Z,20.00
2022-07-31T03:01:49.922Z,20.00
2022-07-31T03:02:50.052Z,19.99
2022-07-31T03:03:50.235Z,19.95
2022-07-31T03:04:50.432Z,19.96
2022-07-31T03:05:50.602Z,19.95
2022-07-31T03:06:50.782Z,19.94
2022-07-31T03:07:50.962Z,19.92
2022-07-31T03:08:51.144Z,19.91
2022-07-31T03:09:51.332Z,19.91
2022-07-31T03:10:51.534Z,19.88
2022-07-31T03:11:51.674Z,19.89
2022-07-31T03:12:51.843Z,19.86
2022-07-31T03:13:52.024Z,19.88
2022-07-31T03:14:52.233Z,19.84
2022-07-31T03:15:52.385Z,19.84
2022-07-31T03:16:52.563Z,19.84
2022-07-31T03:17:52.760Z,19.84
2022-07-31T03:18:52.913Z,19.84
2022-07-31T03:19:53.091Z,19.84
2022-07-31T03:20:53.255Z,19.81
2022-07-31T03:21:53.413Z,19.79
2022-07-31T03:22:53.613Z,19.77
2022-07-31T03:23:53.808Z,19.76
2022-07-31T03:24:54.077Z,19.76
2022-07-31T03:25:54.145Z,19.74
2022-07-31T03:26:54.303Z,19.73
2022-07-31T03:27:56.772Z,19.71
2022-07-31T03:28:54.622Z,19.70
2022-07-31T03:29:54.794Z,19.67
2022-07-31T03:30:56.248Z,19.66
2022-07-31T03:31:55.095Z,19.63
2022-07-31T03:32:55.275Z,19.63
2022-07-31T03:33:55.465Z,19.62
2022-07-31T03:34:55.674Z,19.62
2022-07-31T03:35:55.811Z,19.59
2022-07-31T03:36:56.007Z,19.59
2022-07-31T03:37:56.187Z,19.59
2022-07-31T03:38:56.375Z,19.62
2022-07-31T03:39:56.554Z,19.59
2022-07-31T03:40:56.708Z,19.63
2022-07-31T03:41:56.886Z,19.62
2022-07-31T03:42:57.058Z,19.63
2022-07-31T03:43:57.214Z,19.64
2022-07-31T03:44:57.424Z,19.63
2022-07-31T03:45:57.564Z,19.66
2022-07-31T03:46:57.755Z,19.66
2022-07-31T03:47:57.925Z,19.66
2022-07-31T03:48:58.123Z,19.67
2022-07-31T03:49:58.305Z,19.69
2022-07-31T03:50:58.458Z,19.71
2022-07-31T03:51:58.619Z,19.71
2022-07-31T03:52:58.775Z,19.74
2022-07-31T03:53:58.938Z,19.79
2022-07-31T03:54:59.114Z,19.81
2022-07-31T03:55:59.269Z,19.84
2022-07-31T03:56:59.455Z,19.86
2022-07-31T03:57:59.626Z,19.89
2022-07-31T03:58:59.806Z,19.92
2022-07-31T04:00:00.076Z,19.96
2022-07-31T04:01:00.168Z,20.02
2022-07-31T04:02:00.346Z,20.06
2022-07-31T04:03:00.565Z,20.09
2022-07-31T04:04:00.738Z,20.11
2022-07-31T04:05:00.925Z,20.14
2022-07-31T04:06:01.091Z,20.21
2022-07-31T04:07:01.269Z,20.21
2022-07-31T04:08:01.447Z,20.24
2022-07-31T04:09:01.637Z,20.26
2022-07-31T04:10:02.827Z,20.31
2022-07-31T04:11:01.987Z,20.36
2022-07-31T04:12:02.471Z,20.39
2022-07-31T04:13:02.366Z,20.39
2022-07-31T04:14:02.526Z,20.41
2022-07-31T04:15:02.725Z,20.44
2022-07-31T04:16:02.897Z,20.48
2022-07-31T04:17:03.077Z,20.50
2022-07-31T04:18:03.256Z,20.52
2022-07-31T04:19:03.446Z,20.55
2022-07-31T04:20:03.683Z,20.58
2022-07-31T04:21:03.807Z,20.60
2022-07-31T04:22:04.316Z,20.65
2022-07-31T04:23:04.186Z,20.66
2022-07-31T04:24:04.365Z,20.69
2022-07-31T04:25:04.636Z,20.70
2022-07-31T04:26:04.706Z,20.74
2022-07-31T04:27:08.186Z,20.78
2022-07-31T04:28:06.077Z,20.82
2022-07-31T04:29:05.269Z,20.85
2022-07-31T04:30:05.468Z,20.88
2022-07-31T04:31:05.627Z,20.88
2022-07-31T04:32:06.114Z,20.93
2022-07-31T04:33:05.956Z,20.97
2022-07-31T04:34:06.127Z,21.00
2022-07-31T04:35:06.327Z,21.03
2022-07-31T04:36:06.477Z,21.05
2022-07-31T04:37:07.679Z,21.12
2022-07-31T04:38:06.827Z,21.14
2022-07-31T04:39:07.019Z,21.17
2022-07-31T04:40:07.210Z,21.21
2022-07-31T04:41:07.368Z,21.24
2022-07-31T04:42:11.259Z,21.25
2022-07-31T04:43:07.718Z,21.30
2022-07-31T04:44:07.898Z,21.33
2022-07-31T04:45:08.099Z,21.35
2022-07-31T04:46:17.059Z,21.37
2022-07-31T04:47:09.460Z,21.40
2022-07-31T04:48:08.648Z,21.43
2022-07-31T04:49:08.884Z,21.48
2022-07-31T04:50:09.009Z,21.52
2022-07-31T04:51:09.148Z,21.54
2022-07-31T04:52:09.330Z,21.58
2022-07-31T04:53:09.512Z,21.62
2022-07-31T04:54:09.688Z,21.66
2022-07-31T04:55:09.889Z,21.72
2022-07-31T04:56:10.051Z,21.73
2022-07-31T04:57:10.238Z,21.76
2022-07-31T04:58:10.420Z,21.76
2022-07-31T04:59:10.599Z,21.79
2022-07-31T05:00:10.799Z,21.79
2022-07-31T05:01:11.036Z,21.83
2022-07-31T05:02:11.171Z,21.91
2022-07-31T05:03:11.282Z,21.92
2022-07-31T05:04:11.459Z,21.96
2022-07-31T05:05:11.670Z,21.99
2022-07-31T05:06:11.981Z,21.99
2022-07-31T05:07:11.980Z,22.00
2022-07-31T05:08:12.160Z,22.04
2022-07-31T05:09:17.955Z,22.08
2022-07-31T05:10:13.531Z,22.13
2022-07-31T05:11:12.690Z,22.17
2022-07-31T05:12:12.870Z,22.22
2022-07-31T05:13:13.051Z,22.26
2022-07-31T05:14:13.220Z,22.30
2022-07-31T05:15:13.430Z,22.35
2022-07-31T05:16:13.578Z,22.38
2022-07-31T05:17:13.758Z,22.43
2022-07-31T05:18:13.931Z,22.45
2022-07-31T05:19:15.001Z,22.51
2022-07-31T05:20:14.320Z,22.53
2022-07-31T05:21:14.480Z,22.55
2022-07-31T05:22:14.700Z,22.60
2022-07-31T05:23:14.851Z,22.62
2022-07-31T05:24:15.001Z,22.66
2022-07-31T05:25:15.212Z,22.70
2022-07-31T05:26:15.351Z,22.76
2022-07-31T05:27:15.531Z,22.85
2022-07-31T05:28:15.712Z,23.00
2022-07-31T05:29:15.892Z,23.18
2022-07-31T05:30:16.052Z,23.50
2022-07-31T05:31:16.225Z,23.92
2022-07-31T05:32:16.678Z,24.30
2022-07-31T05:33:16.550Z,24.70
2022-07-31T05:34:16.714Z,25.14
2022-07-31T05:35:16.993Z,25.54
2022-07-31T05:36:17.083Z,25.96
2022-07-31T05:37:17.262Z,26.26
2022-07-31T05:38:17.443Z,26.58
2022-07-31T05:39:17.618Z,26.89
2022-07-31T05:40:17.830Z,27.22
2022-07-31T05:41:17.954Z,27.54
2022-07-31T05:42:18.140Z,27.85
2022-07-31T05:43:18.311Z,28.12
2022-07-31T05:44:18.496Z,28.37
2022-07-31T05:45:18.674Z,28.60
2022-07-31T05:46:18.861Z,28.84
2022-07-31T05:47:19.035Z,29.08
2022-07-31T05:48:19.231Z,29.31
2022-07-31T05:49:19.468Z,29.51
2022-07-31T05:50:19.614Z,29.73
2022-07-31T05:51:19.951Z,29.93
2022-07-31T05:52:19.952Z,30.08
2022-07-31T05:53:21.114Z,30.21
2022-07-31T05:54:20.342Z,30.37
2022-07-31T05:55:20.485Z,30.53
2022-07-31T05:56:20.667Z,30.70
2022-07-31T05:57:33.723Z,30.91
2022-07-31T05:58:21.999Z,30.99
2022-07-31T05:59:21.190Z,31.07
2022-07-31T06:00:21.386Z,31.18
2022-07-31T06:01:21.601Z,31.31
2022-07-31T06:02:21.708Z,31.43
2022-07-31T06:03:21.897Z,31.47
2022-07-31T06:04:22.075Z,31.64
2022-07-31T06:05:22.267Z,31.77
2022-07-31T06:06:22.437Z,31.93
2022-07-31T06:07:22.618Z,32.03
2022-07-31T06:08:22.789Z,32.04
2022-07-31T06:09:22.980Z,32.16
2022-07-31T06:10:23.167Z,32.33
2022-07-31T06:11:23.338Z,32.49
2022-07-31T06:12:23.509Z,32.63
2022-07-31T06:13:23.699Z,32.78
2022-07-31T06:14:23.870Z,33.04
2022-07-31T06:15:24.069Z,33.22
2022-07-31T06:16:24.247Z,33.32
2022-07-31T06:17:24.425Z,33.46
2022-07-31T06:18:25.600Z,33.64
2022-07-31T06:19:24.937Z,33.77
2022-07-31T06:20:24.996Z,33.86
2022-07-31T06:21:30.371Z,33.86
2022-07-31T06:22:25.355Z,33.94
2022-07-31T06:23:29.633Z,34.05
2022-07-31T06:24:26.711Z,34.16
2022-07-31T06:25:30.182Z,34.32
2022-07-31T06:26:27.689Z,34.50
2022-07-31T06:27:33.242Z,34.67
2022-07-31T06:28:38.853Z,34.80
2022-07-31T06:29:42.255Z,34.77
2022-07-31T06:30:27.822Z,34.85
2022-07-31T06:31:26.944Z,34.95
2022-07-31T06:32:27.123Z,35.04
2022-07-31T06:33:37.591Z,35.07
2022-07-31T06:34:28.478Z,35.19
2022-07-31T06:35:27.666Z,35.31
2022-07-31T06:36:27.854Z,35.34
2022-07-31T06:37:28.034Z,35.49
2022-07-31T06:38:28.204Z,35.64
2022-07-31T06:39:55.124Z,35.79
2022-07-31T06:40:29.576Z,35.89
2022-07-31T06:41:28.735Z,35.98
2022-07-31T06:42:28.905Z,36.04
2022-07-31T06:43:29.096Z,36.04
2022-07-31T06:44:29.266Z,35.95
2022-07-31T06:45:50.679Z,36.02
2022-07-31T06:46:30.609Z,36.16
2022-07-31T06:47:29.797Z,36.20
2022-07-31T06:48:29.972Z,36.33
2022-07-31T06:49:30.353Z,36.51
2022-07-31T06:50:30.357Z,36.61
2022-07-31T06:51:31.970Z,36.67
2022-07-31T06:52:30.688Z,36.83
2022-07-31T06:53:30.868Z,36.93
2022-07-31T06:54:31.050Z,37.01
2022-07-31T06:55:31.254Z,37.11
2022-07-31T06:56:31.394Z,37.21
2022-07-31T06:57:31.579Z,37.30
2022-07-31T06:58:31.769Z,37.39
2022-07-31T06:59:39.640Z,37.23
2022-07-31T07:00:33.140Z,37.25
2022-07-31T07:01:32.377Z,37.35
2022-07-31T07:02:32.477Z,37.45
2022-07-31T07:03:32.642Z,37.56
2022-07-31T07:05:04.527Z,37.70
2022-07-31T07:05:34.020Z,37.64
2022-07-31T07:06:33.161Z,37.60
2022-07-31T07:07:33.352Z,37.60
2022-07-31T07:08:33.523Z,37.59
2022-07-31T07:09:33.720Z,37.64
2022-07-31T07:10:33.894Z,37.71
2022-07-31T07:11:34.115Z,37.84
2022-07-31T07:12:34.241Z,37.92
2022-07-31T07:13:45.347Z,37.89
2022-07-31T07:14:35.595Z,37.86
2022-07-31T07:15:34.784Z,37.92
2022-07-31T07:16:34.975Z,38.06
2022-07-31T07:17:35.124Z,38.12
2022-07-31T07:18:35.298Z,38.12
2022-07-31T07:19:35.485Z,38.17
2022-07-31T07:20:35.655Z,38.15
2022-07-31T07:21:35.865Z,38.24
2022-07-31T07:22:36.007Z,38.38
2022-07-31T07:23:36.197Z,38.46
2022-07-31T07:24:36.385Z,38.55
2022-07-31T07:25:36.567Z,38.61
2022-07-31T07:26:36.754Z,38.68
2022-07-31T07:27:36.934Z,38.77
2022-07-31T07:28:37.106Z,38.91
2022-07-31T07:29:37.311Z,39.03
2022-07-31T07:30:37.458Z,39.11
2022-07-31T07:31:37.638Z,39.26
2022-07-31T07:32:37.818Z,39.38
2022-07-31T07:33:39.591Z,39.41
2022-07-31T07:34:38.170Z,39.53
2022-07-31T07:35:38.368Z,39.65
2022-07-31T07:36:38.511Z,39.77
2022-07-31T07:37:39.195Z,39.77
2022-07-31T07:38:38.901Z,39.83
2022-07-31T07:39:39.062Z,39.83
2022-07-31T07:40:39.251Z,39.85
2022-07-31T07:41:39.443Z,39.68
2022-07-31T07:42:39.591Z,39.68
2022-07-31T07:43:39.771Z,39.70
2022-07-31T07:44:39.941Z,39.75
2022-07-31T07:45:40.130Z,39.87
2022-07-31T07:46:40.309Z,39.96
2022-07-31T07:47:53.885Z,39.92
2022-07-31T07:48:41.673Z,39.96
2022-07-31T07:49:40.863Z,40.06
2022-07-31T07:50:41.073Z,40.18
2022-07-31T07:52:00.085Z,40.33
2022-07-31T07:52:44.038Z,40.50
2022-07-31T07:53:41.574Z,40.70
2022-07-31T07:54:41.763Z,40.77
2022-07-31T07:55:41.955Z,40.96
2022-07-31T07:56:42.124Z,41.14
2022-07-31T07:57:42.316Z,41.21
2022-07-31T07:58:42.494Z,41.40
2022-07-31T07:59:42.685Z,41.56
2022-07-31T08:00:42.922Z,41.77
2022-07-31T08:01:43.096Z,42.09
2022-07-31T08:02:43.195Z,42.20
2022-07-31T08:03:48.816Z,42.26
2022-07-31T08:04:47.501Z,42.20
2022-07-31T08:05:43.757Z,42.28
2022-07-31T08:06:43.935Z,42.43
2022-07-31T08:07:44.125Z,42.36
2022-07-31T08:08:44.308Z,42.26
2022-07-31T08:09:44.479Z,41.85
2022-07-31T08:10:44.667Z,41.33
2022-07-31T08:11:44.848Z,40.84
2022-07-31T08:12:45.028Z,40.44
2022-07-31T08:13:49.707Z,40.14
2022-07-31T08:14:46.380Z,40.27
2022-07-31T08:15:45.588Z,40.68
2022-07-31T08:16:45.806Z,41.10
2022-07-31T08:17:45.910Z,41.59
2022-07-31T08:18:46.076Z,41.85
2022-07-31T08:19:51.070Z,42.13
2022-07-31T08:20:47.450Z,42.36
2022-07-31T08:21:46.640Z,42.24
2022-07-31T08:22:46.839Z,42.33
2022-07-31T08:23:46.961Z,42.47
2022-07-31T08:24:47.132Z,42.35
2022-07-31T08:25:47.348Z,42.13
2022-07-31T08:26:47.511Z,42.16
2022-07-31T08:27:47.930Z,42.25
2022-07-31T08:28:50.539Z,42.45
2022-07-31T08:29:48.032Z,42.72
2022-07-31T08:30:48.213Z,42.88
2022-07-31T08:31:49.365Z,43.23
2022-07-31T08:32:48.524Z,43.38
2022-07-31T08:33:48.713Z,43.49
2022-07-31T08:34:48.895Z,43.68
2022-07-31T08:35:50.164Z,43.91
2022-07-31T08:36:49.235Z,43.49
2022-07-31T08:37:54.353Z,43.16
2022-07-31T08:38:50.607Z,42.91
2022-07-31T08:39:49.794Z,42.35
2022-07-31T08:40:49.993Z,42.14
2022-07-31T08:41:50.136Z,42.24
2022-07-31T08:42:50.312Z,41.87
2022-07-31T08:44:02.772Z,41.43
2022-07-31T08:44:51.674Z,41.25
2022-07-31T08:45:50.878Z,41.03
2022-07-31T08:46:51.018Z,41.07
2022-07-31T08:47:51.197Z,41.22
2022-07-31T08:48:51.436Z,41.25
2022-07-31T08:49:51.559Z,41.04
2022-07-31T08:50:53.900Z,40.91
2022-07-31T08:51:52.733Z,40.73
2022-07-31T08:52:52.080Z,40.47
2022-07-31T08:53:52.261Z,40.28
2022-07-31T08:54:52.442Z,39.99
2022-07-31T08:55:56.153Z,39.74
2022-07-31T08:56:53.790Z,39.70
2022-07-31T08:57:52.959Z,39.56
2022-07-31T08:58:53.121Z,39.55
2022-07-31T08:59:53.320Z,39.65
2022-07-31T09:00:53.540Z,39.78
2022-07-31T09:01:53.641Z,39.99
2022-07-31T09:02:53.809Z,40.27
2022-07-31T09:03:53.993Z,40.61
2022-07-31T09:04:54.183Z,41.10
2022-07-31T09:05:54.384Z,41.70
2022-07-31T09:06:54.563Z,42.07
2022-07-31T09:07:54.720Z,42.41
2022-07-31T09:08:54.893Z,42.47
2022-07-31T09:09:55.092Z,42.84
2022-07-31T09:10:55.285Z,43.20
2022-07-31T09:11:55.424Z,43.58
2022-07-31T09:12:55.604Z,43.86
2022-07-31T09:14:01.524Z,44.10
2022-07-31T09:14:56.965Z,44.24
2022-07-31T09:15:56.136Z,44.47
2022-07-31T09:16:56.315Z,44.55
2022-07-31T09:17:56.496Z,44.54
2022-07-31T09:18:56.675Z,44.48
2022-07-31T09:19:56.846Z,44.54
2022-07-31T09:20:57.040Z,44.65
2022-07-31T09:21:57.253Z,44.68
2022-07-31T09:22:57.405Z,44.91
2022-07-31T09:23:57.587Z,45.06
2022-07-31T09:24:57.769Z,45.08
2022-07-31T09:25:57.969Z,45.12
2022-07-31T09:26:58.128Z,45.28
2022-07-31T09:27:58.282Z,45.47
2022-07-31T09:28:58.462Z,45.46
2022-07-31T09:29:58.629Z,45.37
2022-07-31T09:30:58.827Z,45.51
2022-07-31T09:31:58.978Z,45.68
2022-07-31T09:32:59.150Z,45.68
2022-07-31T09:33:59.351Z,45.75
2022-07-31T09:34:59.530Z,45.87
2022-07-31T09:35:59.730Z,46.00
2022-07-31T09:36:59.868Z,46.08
2022-07-31T09:38:00.050Z,46.27
2022-07-31T09:39:05.266Z,46.27
2022-07-31T09:40:01.857Z,46.32
2022-07-31T09:41:00.581Z,46.41
2022-07-31T09:42:17.011Z,46.43
2022-07-31T09:43:03.023Z,46.32
2022-07-31T09:44:01.138Z,46.42
2022-07-31T09:45:01.328Z,46.41
2022-07-31T09:46:01.523Z,46.53
2022-07-31T09:47:02.037Z,46.55
2022-07-31T09:48:01.833Z,46.62
2022-07-31T09:49:02.064Z,46.70
2022-07-31T09:50:02.226Z,46.95
2022-07-31T09:51:02.364Z,46.95
2022-07-31T09:52:02.555Z,47.04
2022-07-31T09:53:02.725Z,47.29
2022-07-31T09:54:02.915Z,47.23
2022-07-31T09:55:03.096Z,46.95
2022-07-31T09:56:04.345Z,46.95
2022-07-31T09:57:03.750Z,47.04
2022-07-31T09:58:03.645Z,46.86
2022-07-31T09:59:03.846Z,46.92
2022-07-31T10:00:04.018Z,46.94
2022-07-31T10:01:04.246Z,46.91
2022-07-31T10:02:04.376Z,46.95
2022-07-31T10:03:04.566Z,47.14
2022-07-31T10:04:04.758Z,47.23
2022-07-31T10:05:04.905Z,47.37
2022-07-31T10:06:05.126Z,47.58
2022-07-31T10:07:05.606Z,47.74
2022-07-31T10:08:05.472Z,47.64
2022-07-31T10:09:05.648Z,47.39
2022-07-31T10:10:05.830Z,47.22
2022-07-31T10:11:06.008Z,47.11
2022-07-31T10:12:06.188Z,47.07
2022-07-31T10:13:06.388Z,46.94
2022-07-31T10:14:06.537Z,46.79
2022-07-31T10:15:06.708Z,46.67
2022-07-31T10:16:06.921Z,46.42
2022-07-31T10:17:07.321Z,45.88
2022-07-31T10:18:07.247Z,45.39
2022-07-31T10:19:07.420Z,44.72
2022-07-31T10:20:07.600Z,44.10
2022-07-31T10:21:07.790Z,43.55
2022-07-31T10:22:07.976Z,42.99
2022-07-31T10:23:08.158Z,42.53
2022-07-31T10:24:08.373Z,42.14
2022-07-31T10:25:08.490Z,41.82
2022-07-31T10:26:08.682Z,41.36
2022-07-31T10:27:09.513Z,40.75
2022-07-31T10:28:09.023Z,40.33
2022-07-31T10:29:09.183Z,39.93
2022-07-31T10:30:09.364Z,39.51
2022-07-31T10:31:09.533Z,39.06
2022-07-31T10:32:09.693Z,38.69
2022-07-31T10:33:40.817Z,38.33
2022-07-31T10:34:11.036Z,38.01
2022-07-31T10:35:10.214Z,37.63
2022-07-31T10:36:10.398Z,37.36
2022-07-31T10:37:11.417Z,37.10
2022-07-31T10:38:10.695Z,36.79
2022-07-31T10:39:10.876Z,36.59
2022-07-31T10:40:11.063Z,36.33
2022-07-31T10:41:11.260Z,36.05
2022-07-31T10:42:11.425Z,35.88
2022-07-31T10:43:11.616Z,35.58
2022-07-31T10:44:11.809Z,35.33
2022-07-31T10:45:11.968Z,35.12
2022-07-31T10:46:12.166Z,34.93
2022-07-31T10:47:12.318Z,34.73
2022-07-31T10:48:12.468Z,34.52
2022-07-31T10:49:12.726Z,34.40
2022-07-31T10:50:12.850Z,34.35
2022-07-31T10:51:13.048Z,34.33
2022-07-31T10:52:13.196Z,34.33
2022-07-31T10:53:13.390Z,34.39
2022-07-31T10:54:13.538Z,34.39
2022-07-31T10:55:13.728Z,34.40
2022-07-31T10:56:13.904Z,34.48
2022-07-31T10:57:14.059Z,34.51
2022-07-31T10:58:14.249Z,34.55
2022-07-31T10:59:14.420Z,34.43
2022-07-31T11:00:14.601Z,34.25
2022-07-31T11:01:17.628Z,34.13
2022-07-31T11:02:14.971Z,33.96
2022-07-31T11:03:15.128Z,33.73
2022-07-31T11:04:15.309Z,33.57
2022-07-31T11:05:15.490Z,33.45
2022-07-31T11:06:15.701Z,33.32
2022-07-31T11:07:15.839Z,33.17
2022-07-31T11:08:16.021Z,33.05
2022-07-31T11:09:16.211Z,33.00
2022-07-31T11:10:16.401Z,32.96
2022-07-31T11:11:16.584Z,32.93
2022-07-31T11:12:16.762Z,32.92
2022-07-31T11:13:16.953Z,32.95
2022-07-31T11:14:17.139Z,32.96
2022-07-31T11:15:17.323Z,32.97
2022-07-31T11:16:17.486Z,33.07
2022-07-31T11:17:17.673Z,33.14
2022-07-31T11:18:25.267Z,33.27
2022-07-31T11:19:19.036Z,33.30
2022-07-31T11:20:18.173Z,33.37
2022-07-31T11:21:37.621Z,33.42
2022-07-31T11:22:32.280Z,33.50
2022-07-31T11:23:19.715Z,33.55
2022-07-31T11:24:18.868Z,33.55
2022-07-31T11:25:19.054Z,33.46
2022-07-31T11:26:19.244Z,33.39
2022-07-31T11:27:20.414Z,33.36
2022-07-31T11:28:19.587Z,33.32
2022-07-31T11:29:59.964Z,33.31
2022-07-31T11:30:20.905Z,33.34
2022-07-31T11:31:20.099Z,33.32
2022-07-31T11:32:25.078Z,33.28
2022-07-31T11:33:21.454Z,33.23
2022-07-31T11:34:20.605Z,33.19
2022-07-31T11:35:20.786Z,33.11
2022-07-31T11:36:20.983Z,33.09
2022-07-31T11:37:21.137Z,33.07
2022-07-31T11:38:21.316Z,33.05
2022-07-31T11:39:26.605Z,32.97
2022-07-31T11:40:27.300Z,32.95
2022-07-31T11:41:23.123Z,32.90
2022-07-31T11:42:26.437Z,32.85
2022-07-31T11:43:25.947Z,32.78
2022-07-31T11:44:22.390Z,32.73
2022-07-31T11:45:22.569Z,32.64
2022-07-31T11:46:22.769Z,32.53
2022-07-31T11:48:10.294Z,32.49
2022-07-31T11:48:27.328Z,32.41
2022-07-31T11:49:39.206Z,32.48
2022-07-31T11:50:24.472Z,32.60
2022-07-31T11:51:23.659Z,32.77
2022-07-31T11:52:30.768Z,32.96
2022-07-31T11:53:24.982Z,33.09
2022-07-31T11:54:24.151Z,33.17
2022-07-31T11:55:24.322Z,33.24
2022-07-31T11:56:24.500Z,33.19
2022-07-31T11:57:24.660Z,33.22
2022-07-31T11:58:25.820Z,33.28
2022-07-31T11:59:45.514Z,33.30
2022-07-31T12:00:29.692Z,33.28
2022-07-31T12:01:25.412Z,33.30
2022-07-31T12:02:25.648Z,33.22
2022-07-31T12:03:25.742Z,33.15
2022-07-31T12:04:25.922Z,33.07
2022-07-31T12:05:37.935Z,33.02
2022-07-31T12:06:27.282Z,33.02
2022-07-31T12:07:26.432Z,32.97
2022-07-31T12:08:26.621Z,32.96
2022-07-31T12:10:00.805Z,32.87
2022-07-31T12:10:27.973Z,32.82
2022-07-31T12:11:27.153Z,32.80
2022-07-31T12:12:27.316Z,32.82
2022-07-31T12:13:27.583Z,32.89
2022-07-31T12:14:27.654Z,32.85
2022-07-31T12:15:27.824Z,32.90
2022-07-31T12:16:28.009Z,32.96
2022-07-31T12:17:28.166Z,33.02
2022-07-31T12:18:28.336Z,33.12
2022-07-31T12:19:28.505Z,33.20
2022-07-31T12:20:35.318Z,33.23
2022-07-31T12:21:29.866Z,33.22
2022-07-31T12:22:29.016Z,33.17
2022-07-31T12:23:40.933Z,33.22
2022-07-31T12:24:30.355Z,33.31
2022-07-31T12:25:29.537Z,33.31
2022-07-31T12:26:29.745Z,33.32
2022-07-31T12:27:29.888Z,33.36
2022-07-31T12:28:30.067Z,33.36
2022-07-31T12:29:30.248Z,33.40
2022-07-31T12:30:30.428Z,33.40
2022-07-31T12:31:30.640Z,33.43
2022-07-31T12:32:30.769Z,33.40
2022-07-31T12:33:30.959Z,33.39
2022-07-31T12:34:31.146Z,33.40
2022-07-31T12:35:38.459Z,33.43
2022-07-31T12:36:32.508Z,33.43
2022-07-31T12:37:31.659Z,33.49
2022-07-31T12:38:44.694Z,33.57
2022-07-31T12:39:47.509Z,33.65
2022-07-31T12:40:33.210Z,33.59
2022-07-31T12:41:32.411Z,33.55
2022-07-31T12:42:36.424Z,33.59
2022-07-31T12:43:33.752Z,33.64
2022-07-31T12:44:32.901Z,33.64
2022-07-31T12:45:33.090Z,33.61
2022-07-31T12:46:33.280Z,33.53
2022-07-31T12:47:33.431Z,33.43
2022-07-31T12:48:38.602Z,33.32
2022-07-31T12:49:34.826Z,33.19
2022-07-31T12:50:33.983Z,33.05
2022-07-31T12:51:46.052Z,32.93
2022-07-31T12:52:35.342Z,32.86
2022-07-31T12:53:34.534Z,32.83
2022-07-31T12:54:39.155Z,32.77